sensor_id;sensor_type;location;lat;lon;timestamp;pressure;altitude;pressure_sealevel;temperature;humidity
70833;BME280;58452;59.418;17.962;2022-07-06T00:02:17;100953.44;;;15.32;65.70
70833;BME280;58452;59.418;17.962;2022-07-06T00:04:42;100953.06;;;15.43;65.39
70833;BME280;58452;59.418;17.962;2022-07-06T00:07:07;100955.03;;;15.41;65.17
70833;BME280;58452;59.418;17.962;2022-07-06T00:09:33;100950.16;;;15.38;65.33
70833;BME280;58452;59.418;17.962;2022-07-06T00:11:59;100945.91;;;15.45;65.22
70833;BME280;58452;59.418;17.962;2022-07-06T00:14:25;100946.38;;;15.48;64.99
70833;BME280;58452;59.418;17.962;2022-07-06T00:16:50;100949.03;;;15.40;65.24
70833;BME280;58452;59.418;17.962;2022-07-06T00:19:15;100950.31;;;15.44;65.21
70833;BME280;58452;59.418;17.962;2022-07-06T00:21:41;100947.41;;;15.39;65.37
70833;BME280;58452;59.418;17.962;2022-07-06T00:24:06;100952.28;;;15.34;65.46
70833;BME280;58452;59.418;17.962;2022-07-06T00:26:32;100943.16;;;15.38;65.54
70833;BME280;58452;59.418;17.962;2022-07-06T00:28:57;100939.59;;;15.31;65.58
70833;BME280;58452;59.418;17.962;2022-07-06T00:31:22;100944.19;;;15.21;65.99
70833;BME280;58452;59.418;17.962;2022-07-06T00:33:48;100941.09;;;15.26;66.09
70833;BME280;58452;59.418;17.962;2022-07-06T00:36:14;100936.38;;;15.29;65.74
70833;BME280;58452;59.418;17.962;2022-07-06T00:38:39;100933.59;;;15.23;66.33
70833;BME280;58452;59.418;17.962;2022-07-06T00:41:04;100930.69;;;15.26;66.40
70833;BME280;58452;59.418;17.962;2022-07-06T00:43:53;100944.66;;;15.25;66.01
70833;BME280;58452;59.418;17.962;2022-07-06T00:46:23;100938.50;;;15.26;66.09
70833;BME280;58452;59.418;17.962;2022-07-06T00:48:50;100932.00;;;15.30;66.31
70833;BME280;58452;59.418;17.962;2022-07-06T00:51:16;100930.63;;;15.42;66.16
70833;BME280;58452;59.418;17.962;2022-07-06T00:53:42;100929.50;;;15.44;65.97
70833;BME280;58452;59.418;17.962;2022-07-06T00:56:08;100921.53;;;15.38;66.32
70833;BME280;58452;59.418;17.962;2022-07-06T00:58:34;100932.59;;;15.40;66.02
70833;BME280;58452;59.418;17.962;2022-07-06T01:01:00;100933.09;;;15.35;66.21
70833;BME280;58452;59.418;17.962;2022-07-06T01:03:25;100932.34;;;15.19;66.52
70833;BME280;58452;59.418;17.962;2022-07-06T01:05:51;100929.41;;;15.22;66.73
70833;BME280;58452;59.418;17.962;2022-07-06T01:08:16;100927.16;;;15.10;66.76
70833;BME280;58452;59.418;17.962;2022-07-06T01:10:42;100933.31;;;15.18;66.73
70833;BME280;58452;59.418;17.962;2022-07-06T01:13:08;100936.75;;;15.10;66.66
70833;BME280;58452;59.418;17.962;2022-07-06T01:15:33;100930.25;;;15.06;66.96
70833;BME280;58452;59.418;17.962;2022-07-06T01:17:59;100928.81;;;14.87;67.62
70833;BME280;58452;59.418;17.962;2022-07-06T01:20:26;100930.59;;;14.87;67.84
70833;BME280;58452;59.418;17.962;2022-07-06T01:22:53;100927.66;;;14.98;67.68
70833;BME280;58452;59.418;17.962;2022-07-06T01:25:20;100929.63;;;14.96;67.51
70833;BME280;58452;59.418;17.962;2022-07-06T01:27:46;100929.78;;;15.02;67.28
70833;BME280;58452;59.418;17.962;2022-07-06T01:30:14;100924.75;;;14.93;67.48
70833;BME280;58452;59.418;17.962;2022-07-06T01:32:41;100921.50;;;14.91;67.47
70833;BME280;58452;59.418;17.962;2022-07-06T01:35:08;100928.00;;;14.95;67.43
70833;BME280;58452;59.418;17.962;2022-07-06T01:37:34;100926.69;;;14.91;67.70
70833;BME280;58452;59.418;17.962;2022-07-06T01:40:01;100930.25;;;14.90;67.59
70833;BME280;58452;59.418;17.962;2022-07-06T01:42:27;100929.97;;;14.93;67.41
70833;BME280;58452;59.418;17.962;2022-07-06T01:44:53;100933.88;;;14.73;68.06
70833;BME280;58452;59.418;17.962;2022-07-06T01:47:18;100936.13;;;14.67;68.63
70833;BME280;58452;59.418;17.962;2022-07-06T01:49:44;100931.28;;;14.73;68.14
70833;BME280;58452;59.418;17.962;2022-07-06T01:52:09;100921.34;;;14.84;67.97
70833;BME280;58452;59.418;17.962;2022-07-06T01:54:35;100917.47;;;14.80;67.86
70833;BME280;58452;59.418;17.962;2022-07-06T01:57:00;100918.91;;;14.83;67.90
70833;BME280;58452;59.418;17.962;2022-07-06T01:59:25;100929.00;;;14.78;68.03
70833;BME280;58452;59.418;17.962;2022-07-06T02:01:51;100927.38;;;14.60;68.59
70833;BME280;58452;59.418;17.962;2022-07-06T02:04:16;100926.25;;;14.71;68.42
70833;BME280;58452;59.418;17.962;2022-07-06T02:06:42;100915.03;;;14.54;68.63
70833;BME280;58452;59.418;17.962;2022-07-06T02:09:07;100923.47;;;14.64;68.60
70833;BME280;58452;59.418;17.962;2022-07-06T02:11:32;100918.13;;;14.50;69.00
70833;BME280;58452;59.418;17.962;2022-07-06T02:13:58;100925.44;;;14.54;69.17
70833;BME280;58452;59.418;17.962;2022-07-06T02:16:23;100931.94;;;14.58;68.92
70833;BME280;58452;59.418;17.962;2022-07-06T02:18:48;100930.94;;;14.67;68.58
70833;BME280;58452;59.418;17.962;2022-07-06T02:21:14;100932.56;;;14.68;68.68
70833;BME280;58452;59.418;17.962;2022-07-06T02:23:39;100926.56;;;14.68;68.66
70833;BME280;58452;59.418;17.962;2022-07-06T02:26:05;100923.47;;;14.64;68.83
70833;BME280;58452;59.418;17.962;2022-07-06T02:28:30;100924.13;;;14.66;68.78
70833;BME280;58452;59.418;17.962;2022-07-06T02:30:56;100925.44;;;14.71;68.65
70833;BME280;58452;59.418;17.962;2022-07-06T02:33:21;100917.13;;;14.75;68.59
70833;BME280;58452;59.418;17.962;2022-07-06T02:35:46;100912.09;;;14.57;69.17
70833;BME280;58452;59.418;17.962;2022-07-06T02:38:12;100914.56;;;14.51;69.39
70833;BME280;58452;59.418;17.962;2022-07-06T02:40:37;100909.53;;;14.41;69.46
70833;BME280;58452;59.418;17.962;2022-07-06T02:43:03;100906.91;;;14.33;69.89
70833;BME280;58452;59.418;17.962;2022-07-06T02:45:29;100910.19;;;14.51;69.41
70833;BME280;58452;59.418;17.962;2022-07-06T02:47:54;100907.56;;;14.51;69.36
70833;BME280;58452;59.418;17.962;2022-07-06T02:50:21;100916.03;;;14.37;70.09
70833;BME280;58452;59.418;17.962;2022-07-06T02:52:46;100911.81;;;14.44;69.80
70833;BME280;58452;59.418;17.962;2022-07-06T02:55:12;100912.63;;;14.45;69.86
70833;BME280;58452;59.418;17.962;2022-07-06T02:57:37;100903.63;;;14.31;70.07
70833;BME280;58452;59.418;17.962;2022-07-06T03:00:04;100907.22;;;14.30;70.25
70833;BME280;58452;59.418;17.962;2022-07-06T03:02:29;100910.31;;;14.34;70.49
70833;BME280;58452;59.418;17.962;2022-07-06T03:04:55;100917.63;;;14.38;70.18
70833;BME280;58452;59.418;17.962;2022-07-06T03:07:21;100914.38;;;14.36;70.12
70833;BME280;58452;59.418;17.962;2022-07-06T03:09:47;100904.63;;;14.38;70.32
70833;BME280;58452;59.418;17.962;2022-07-06T03:12:12;100909.50;;;14.33;70.63
70833;BME280;58452;59.418;17.962;2022-07-06T03:14:38;100911.78;;;14.36;70.52
70833;BME280;58452;59.418;17.962;2022-07-06T03:17:03;100910.50;;;14.48;70.23
70833;BME280;58452;59.418;17.962;2022-07-06T03:19:28;100916.50;;;14.49;70.30
70833;BME280;58452;59.418;17.962;2022-07-06T03:21:54;100915.16;;;14.29;70.67
70833;BME280;58452;59.418;17.962;2022-07-06T03:24:19;100918.28;;;14.40;70.30
70833;BME280;58452;59.418;17.962;2022-07-06T03:26:44;100911.66;;;14.38;70.84
70833;BME280;58452;59.418;17.962;2022-07-06T03:29:10;100912.09;;;14.33;70.51
70833;BME280;58452;59.418;17.962;2022-07-06T03:31:35;100924.22;;;14.08;71.63
70833;BME280;58452;59.418;17.962;2022-07-06T03:34:01;100923.25;;;14.01;71.91
70833;BME280;58452;59.418;17.962;2022-07-06T03:36:26;100921.44;;;13.94;72.01
70833;BME280;58452;59.418;17.962;2022-07-06T03:38:51;100921.28;;;14.03;72.04
70833;BME280;58452;59.418;17.962;2022-07-06T03:41:17;100920.47;;;14.03;71.81
70833;BME280;58452;59.418;17.962;2022-07-06T03:43:42;100913.84;;;14.08;72.01
70833;BME280;58452;59.418;17.962;2022-07-06T03:46:08;100918.69;;;14.03;72.18
70833;BME280;58452;59.418;17.962;2022-07-06T03:48:33;100911.72;;;13.96;72.49
70833;BME280;58452;59.418;17.962;2022-07-06T03:50:59;100913.00;;;14.00;72.60
70833;BME280;58452;59.418;17.962;2022-07-06T03:53:25;100912.69;;;13.87;73.00
70833;BME280;58452;59.418;17.962;2022-07-06T03:55:51;100917.16;;;13.77;73.46
70833;BME280;58452;59.418;17.962;2022-07-06T03:58:35;100911.34;;;13.91;73.12
70833;BME280;58452;59.418;17.962;2022-07-06T04:01:00;100913.63;;;13.86;73.05
70833;BME280;58452;59.418;17.962;2022-07-06T04:03:26;100904.75;;;13.96;73.04
70833;BME280;58452;59.418;17.962;2022-07-06T04:05:52;100911.56;;;13.97;73.39
70833;BME280;58452;59.418;17.962;2022-07-06T04:08:17;100911.03;;;13.86;73.67
70833;BME280;58452;59.418;17.962;2022-07-06T04:10:43;100905.56;;;13.97;73.68
70833;BME280;58452;59.418;17.962;2022-07-06T04:13:08;100909.78;;;14.06;73.28
70833;BME280;58452;59.418;17.962;2022-07-06T04:15:33;100910.44;;;14.08;73.32
70833;BME280;58452;59.418;17.962;2022-07-06T04:17:59;100900.03;;;14.00;73.36
70833;BME280;58452;59.418;17.962;2022-07-06T04:20:24;100910.41;;;14.00;73.51
70833;BME280;58452;59.418;17.962;2022-07-06T04:22:51;100908.16;;;14.13;73.36
70833;BME280;58452;59.418;17.962;2022-07-06T04:25:17;100907.34;;;14.20;73.51
70833;BME280;58452;59.418;17.962;2022-07-06T04:27:42;100904.56;;;14.06;73.46
70833;BME280;58452;59.418;17.962;2022-07-06T04:30:09;100894.72;;;14.26;73.25
70833;BME280;58452;59.418;17.962;2022-07-06T04:32:35;100904.34;;;14.41;73.02
70833;BME280;58452;59.418;17.962;2022-07-06T04:35:01;100907.25;;;14.46;72.95
70833;BME280;58452;59.418;17.962;2022-07-06T04:37:26;100904.97;;;14.51;72.67
70833;BME280;58452;59.418;17.962;2022-07-06T04:39:52;100909.38;;;14.67;72.54
70833;BME280;58452;59.418;17.962;2022-07-06T04:42:17;100908.69;;;14.65;71.37
70833;BME280;58452;59.418;17.962;2022-07-06T04:44:43;100916.16;;;14.68;71.64
70833;BME280;58452;59.418;17.962;2022-07-06T04:47:08;100911.81;;;14.52;72.12
70833;BME280;58452;59.418;17.962;2022-07-06T04:49:34;100910.81;;;14.61;72.03
70833;BME280;58452;59.418;17.962;2022-07-06T04:51:59;100910.19;;;14.51;72.28
70833;BME280;58452;59.418;17.962;2022-07-06T04:54:24;100908.22;;;14.53;72.16
70833;BME280;58452;59.418;17.962;2022-07-06T04:56:50;100906.44;;;14.54;72.63
70833;BME280;58452;59.418;17.962;2022-07-06T04:59:15;100906.59;;;14.68;72.36
70833;BME280;58452;59.418;17.962;2022-07-06T05:01:41;100898.78;;;14.85;71.63
70833;BME280;58452;59.418;17.962;2022-07-06T05:04:07;100908.03;;;14.95;71.78
70833;BME280;58452;59.418;17.962;2022-07-06T05:06:33;100903.63;;;14.96;71.27
70833;BME280;58452;59.418;17.962;2022-07-06T05:08:58;100902.94;;;15.10;70.88
70833;BME280;58452;59.418;17.962;2022-07-06T05:11:27;100898.44;;;14.88;71.20
70833;BME280;58452;59.418;17.962;2022-07-06T05:13:53;100900.06;;;14.97;70.91
70833;BME280;58452;59.418;17.962;2022-07-06T05:16:19;100900.91;;;14.89;71.24
70833;BME280;58452;59.418;17.962;2022-07-06T05:18:45;100894.19;;;15.03;70.71
70833;BME280;58452;59.418;17.962;2022-07-06T05:21:10;100897.06;;;15.16;71.14
70833;BME280;58452;59.418;17.962;2022-07-06T05:23:36;100893.47;;;15.25;70.61
70833;BME280;58452;59.418;17.962;2022-07-06T05:26:01;100883.38;;;15.30;71.36
70833;BME280;58452;59.418;17.962;2022-07-06T05:28:27;100888.53;;;15.38;70.84
70833;BME280;58452;59.418;17.962;2022-07-06T05:30:53;100885.59;;;15.49;69.98
70833;BME280;58452;59.418;17.962;2022-07-06T05:33:18;100891.72;;;15.64;69.56
70833;BME280;58452;59.418;17.962;2022-07-06T05:35:43;100889.94;;;15.65;70.03
70833;BME280;58452;59.418;17.962;2022-07-06T05:38:09;100886.34;;;15.89;68.92
70833;BME280;58452;59.418;17.962;2022-07-06T05:40:35;100893.84;;;15.92;68.96
70833;BME280;58452;59.418;17.962;2022-07-06T05:43:01;100885.38;;;15.90;68.41
70833;BME280;58452;59.418;17.962;2022-07-06T05:45:26;100888.69;;;15.84;68.53
70833;BME280;58452;59.418;17.962;2022-07-06T05:47:51;100889.63;;;15.91;69.14
70833;BME280;58452;59.418;17.962;2022-07-06T05:50:35;100890.97;;;15.79;68.92
70833;BME280;58452;59.418;17.962;2022-07-06T05:53:03;100895.72;;;15.75;69.62
70833;BME280;58452;59.418;17.962;2022-07-06T05:55:29;100889.91;;;15.96;69.38
70833;BME280;58452;59.418;17.962;2022-07-06T05:57:54;100881.81;;;15.91;68.84
70833;BME280;58452;59.418;17.962;2022-07-06T06:00:22;100878.41;;;16.13;68.25
70833;BME280;58452;59.418;17.962;2022-07-06T06:02:48;100884.53;;;16.20;67.70
70833;BME280;58452;59.418;17.962;2022-07-06T06:05:14;100887.31;;;15.96;68.04
70833;BME280;58452;59.418;17.962;2022-07-06T06:07:40;100884.16;;;16.00;68.13
70833;BME280;58452;59.418;17.962;2022-07-06T06:10:14;100874.00;;;16.13;67.31
70833;BME280;58452;59.418;17.962;2022-07-06T06:12:41;100872.22;;;16.14;67.91
70833;BME280;58452;59.418;17.962;2022-07-06T06:15:08;100872.81;;;16.39;67.88
70833;BME280;58452;59.418;17.962;2022-07-06T06:17:35;100868.28;;;16.55;67.37
70833;BME280;58452;59.418;17.962;2022-07-06T06:20:00;100873.75;;;16.23;66.92
70833;BME280;58452;59.418;17.962;2022-07-06T06:22:26;100880.81;;;16.37;67.19
70833;BME280;58452;59.418;17.962;2022-07-06T06:24:51;100876.06;;;16.64;67.60
70833;BME280;58452;59.418;17.962;2022-07-06T06:27:17;100878.13;;;16.45;67.55
70833;BME280;58452;59.418;17.962;2022-07-06T06:29:43;100882.16;;;16.56;67.51
70833;BME280;58452;59.418;17.962;2022-07-06T06:32:10;100880.09;;;16.66;67.79
70833;BME280;58452;59.418;17.962;2022-07-06T06:34:37;100883.44;;;16.52;67.55
70833;BME280;58452;59.418;17.962;2022-07-06T06:37:03;100877.41;;;16.51;67.86
70833;BME280;58452;59.418;17.962;2022-07-06T06:39:28;100884.84;;;16.63;66.50
70833;BME280;58452;59.418;17.962;2022-07-06T06:41:54;100882.31;;;16.32;67.96
70833;BME280;58452;59.418;17.962;2022-07-06T06:44:19;100879.22;;;16.36;68.18
70833;BME280;58452;59.418;17.962;2022-07-06T06:46:48;100882.16;;;16.56;68.73
70833;BME280;58452;59.418;17.962;2022-07-06T06:49:14;100878.44;;;16.50;67.32
70833;BME280;58452;59.418;17.962;2022-07-06T06:51:39;100874.03;;;16.51;66.68
70833;BME280;58452;59.418;17.962;2022-07-06T06:54:05;100885.44;;;16.27;66.78
70833;BME280;58452;59.418;17.962;2022-07-06T06:56:30;100882.38;;;16.01;67.83
70833;BME280;58452;59.418;17.962;2022-07-06T06:58:55;100881.06;;;16.05;68.55
70833;BME280;58452;59.418;17.962;2022-07-06T07:01:21;100876.00;;;16.26;67.98
70833;BME280;58452;59.418;17.962;2022-07-06T07:03:46;100877.16;;;16.46;67.61
70833;BME280;58452;59.418;17.962;2022-07-06T07:06:12;100881.72;;;16.44;67.13
70833;BME280;58452;59.418;17.962;2022-07-06T07:08:38;100882.19;;;16.48;66.99
70833;BME280;58452;59.418;17.962;2022-07-06T07:11:03;100877.88;;;16.55;67.29
70833;BME280;58452;59.418;17.962;2022-07-06T07:13:29;100870.03;;;16.40;66.96
70833;BME280;58452;59.418;17.962;2022-07-06T07:15:55;100875.06;;;16.65;67.15
70833;BME280;58452;59.418;17.962;2022-07-06T07:18:20;100862.75;;;16.88;67.73
70833;BME280;58452;59.418;17.962;2022-07-06T07:20:45;100861.53;;;17.13;66.06
70833;BME280;58452;59.418;17.962;2022-07-06T07:23:11;100862.19;;;17.36;65.71
70833;BME280;58452;59.418;17.962;2022-07-06T07:25:36;100855.81;;;17.53;64.46
70833;BME280;58452;59.418;17.962;2022-07-06T07:28:04;100853.53;;;17.65;62.96
70833;BME280;58452;59.418;17.962;2022-07-06T07:30:29;100861.72;;;17.62;62.85
70833;BME280;58452;59.418;17.962;2022-07-06T07:32:55;100862.72;;;17.61;62.97
70833;BME280;58452;59.418;17.962;2022-07-06T07:35:22;100864.19;;;17.34;64.17
70833;BME280;58452;59.418;17.962;2022-07-06T07:37:47;100870.69;;;17.38;62.86
70833;BME280;58452;59.418;17.962;2022-07-06T07:40:13;100848.19;;;17.37;63.77
70833;BME280;58452;59.418;17.962;2022-07-06T07:42:38;100857.47;;;17.76;62.38
70833;BME280;58452;59.418;17.962;2022-07-06T07:45:07;100860.47;;;17.94;62.38
70833;BME280;58452;59.418;17.962;2022-07-06T07:47:32;100858.78;;;18.08;61.13
70833;BME280;58452;59.418;17.962;2022-07-06T07:49:57;100858.13;;;17.63;60.92
70833;BME280;58452;59.418;17.962;2022-07-06T07:52:23;100862.91;;;17.45;61.39
70833;BME280;58452;59.418;17.962;2022-07-06T07:54:48;100858.53;;;17.81;61.30
70833;BME280;58452;59.418;17.962;2022-07-06T07:57:14;100859.41;;;18.10;60.13
70833;BME280;58452;59.418;17.962;2022-07-06T07:59:39;100859.03;;;18.34;60.24
70833;BME280;58452;59.418;17.962;2022-07-06T08:02:05;100859.59;;;18.57;60.12
70833;BME280;58452;59.418;17.962;2022-07-06T08:04:30;100856.91;;;18.72;57.95
70833;BME280;58452;59.418;17.962;2022-07-06T08:06:55;100847.94;;;18.87;58.12
70833;BME280;58452;59.418;17.962;2022-07-06T08:09:21;100852.09;;;18.47;57.46
70833;BME280;58452;59.418;17.962;2022-07-06T08:11:46;100852.28;;;18.25;57.92
70833;BME280;58452;59.418;17.962;2022-07-06T08:14:12;100850.22;;;18.41;58.45
70833;BME280;58452;59.418;17.962;2022-07-06T08:16:39;100852.72;;;18.28;57.30
70833;BME280;58452;59.418;17.962;2022-07-06T08:19:05;100856.66;;;18.18;58.18
70833;BME280;58452;59.418;17.962;2022-07-06T08:21:30;100858.94;;;18.48;58.02
70833;BME280;58452;59.418;17.962;2022-07-06T08:23:56;100858.09;;;18.69;58.32
70833;BME280;58452;59.418;17.962;2022-07-06T08:26:22;100857.50;;;18.67;56.41
70833;BME280;58452;59.418;17.962;2022-07-06T08:28:48;100850.69;;;18.73;56.02
70833;BME280;58452;59.418;17.962;2022-07-06T08:31:13;100855.22;;;18.64;55.61
70833;BME280;58452;59.418;17.962;2022-07-06T08:33:39;100851.25;;;18.47;56.75
70833;BME280;58452;59.418;17.962;2022-07-06T08:36:04;100852.81;;;18.63;56.14
70833;BME280;58452;59.418;17.962;2022-07-06T08:38:30;100852.34;;;18.31;56.46
70833;BME280;58452;59.418;17.962;2022-07-06T08:40:56;100851.75;;;18.29;57.60
70833;BME280;58452;59.418;17.962;2022-07-06T08:43:27;100843.78;;;18.65;57.53
70833;BME280;58452;59.418;17.962;2022-07-06T08:45:53;100848.63;;;18.68;55.29
70833;BME280;58452;59.418;17.962;2022-07-06T08:48:23;100846.19;;;18.60;56.23
70833;BME280;58452;59.418;17.962;2022-07-06T08:50:48;100838.38;;;18.67;55.30
70833;BME280;58452;59.418;17.962;2022-07-06T08:53:18;100838.75;;;18.98;55.07
70833;BME280;58452;59.418;17.962;2022-07-06T08:55:43;100841.31;;;19.32;56.58
70833;BME280;58452;59.418;17.962;2022-07-06T08:58:09;100841.00;;;19.48;54.01
70833;BME280;58452;59.418;17.962;2022-07-06T09:00:35;100832.53;;;19.46;53.48
70833;BME280;58452;59.418;17.962;2022-07-06T09:03:01;100835.03;;;19.81;54.49
70833;BME280;58452;59.418;17.962;2022-07-06T09:05:28;100832.66;;;19.99;54.21
70833;BME280;58452;59.418;17.962;2022-07-06T09:07:53;100832.59;;;19.73;54.39
70833;BME280;58452;59.418;17.962;2022-07-06T09:10:21;100842.53;;;19.36;53.48
70833;BME280;58452;59.418;17.962;2022-07-06T09:12:50;100838.59;;;19.06;53.29
70833;BME280;58452;59.418;17.962;2022-07-06T09:15:15;100842.03;;;19.13;53.61
70833;BME280;58452;59.418;17.962;2022-07-06T09:17:42;100837.03;;;18.77;53.90
70833;BME280;58452;59.418;17.962;2022-07-06T09:20:12;100839.66;;;19.18;54.07
70833;BME280;58452;59.418;17.962;2022-07-06T09:22:38;100834.22;;;19.26;52.85
70833;BME280;58452;59.418;17.962;2022-07-06T09:25:23;100832.53;;;19.46;52.74
70833;BME280;58452;59.418;17.962;2022-07-06T09:27:49;100824.53;;;19.61;52.73
70833;BME280;58452;59.418;17.962;2022-07-06T09:30:20;100833.66;;;19.37;52.27
70833;BME280;58452;59.418;17.962;2022-07-06T09:32:51;100828.81;;;19.28;55.70
70833;BME280;58452;59.418;17.962;2022-07-06T09:35:35;100835.09;;;19.40;52.03
70833;BME280;58452;59.418;17.962;2022-07-06T09:38:06;100832.53;;;19.46;52.19
70833;BME280;58452;59.418;17.962;2022-07-06T09:40:35;100829.13;;;19.52;53.68
70833;BME280;58452;59.418;17.962;2022-07-06T09:43:11;100826.72;;;19.58;52.61
70833;BME280;58452;59.418;17.962;2022-07-06T09:45:38;100825.25;;;19.42;51.01
70833;BME280;58452;59.418;17.962;2022-07-06T09:48:24;100826.75;;;19.71;50.19
70833;BME280;58452;59.418;17.962;2022-07-06T09:50:57;100827.78;;;19.83;50.73
70833;BME280;58452;59.418;17.962;2022-07-06T09:53:25;100826.97;;;19.89;51.48
70833;BME280;58452;59.418;17.962;2022-07-06T09:55:53;100829.19;;;19.85;51.71
70833;BME280;58452;59.418;17.962;2022-07-06T09:58:21;100825.69;;;19.52;51.10
70833;BME280;58452;59.418;17.962;2022-07-06T10:00:47;100820.69;;;19.57;52.18
70833;BME280;58452;59.418;17.962;2022-07-06T10:03:14;100820.03;;;19.42;52.50
70833;BME280;58452;59.418;17.962;2022-07-06T10:05:42;100818.56;;;19.33;52.21
70833;BME280;58452;59.418;17.962;2022-07-06T10:08:09;100825.25;;;19.42;51.50
70833;BME280;58452;59.418;17.962;2022-07-06T10:10:38;100814.81;;;19.48;51.12
70833;BME280;58452;59.418;17.962;2022-07-06T10:13:04;100812.84;;;19.64;51.92
70833;BME280;58452;59.418;17.962;2022-07-06T10:15:34;100812.91;;;20.03;53.19
70833;BME280;58452;59.418;17.962;2022-07-06T10:18:01;100810.47;;;20.21;50.79
70833;BME280;58452;59.418;17.962;2022-07-06T10:20:32;100817.16;;;20.43;52.00
70833;BME280;58452;59.418;17.962;2022-07-06T10:23:00;100807.41;;;20.64;52.63
70833;BME280;58452;59.418;17.962;2022-07-06T10:25:26;100815.31;;;20.51;49.79
70833;BME280;58452;59.418;17.962;2022-07-06T10:27:53;100821.34;;;20.05;50.08
70833;BME280;58452;59.418;17.962;2022-07-06T10:30:19;100818.13;;;20.16;51.33
70833;BME280;58452;59.418;17.962;2022-07-06T10:32:47;100821.34;;;20.05;51.48
70833;BME280;58452;59.418;17.962;2022-07-06T10:35:14;100823.75;;;19.74;52.19
70833;BME280;58452;59.418;17.962;2022-07-06T10:37:40;100826.16;;;19.62;53.67
70833;BME280;58452;59.418;17.962;2022-07-06T10:40:07;100825.69;;;19.45;53.63
70833;BME280;58452;59.418;17.962;2022-07-06T10:42:59;100824.72;;;19.12;53.48
70833;BME280;58452;59.418;17.962;2022-07-06T10:50:41;100822.72;;;19.08;53.05
70833;BME280;58452;59.418;17.962;2022-07-06T10:53:31;100836.84;;;19.26;53.12
70833;BME280;58452;59.418;17.962;2022-07-06T10:56:03;100820.31;;;19.19;53.80
70833;BME280;58452;59.418;17.962;2022-07-06T10:58:41;100819.59;;;19.38;52.13
70833;BME280;58452;59.418;17.962;2022-07-06T11:01:11;100810.50;;;19.34;51.65
70833;BME280;58452;59.418;17.962;2022-07-06T11:03:40;100808.63;;;19.15;51.46
70833;BME280;58452;59.418;17.962;2022-07-06T11:06:11;100813.50;;;19.25;51.52
70833;BME280;58452;59.418;17.962;2022-07-06T11:11:25;100806.78;;;19.57;55.44
70833;BME280;58452;59.418;17.962;2022-07-06T11:13:54;100791.09;;;19.83;49.28
70833;BME280;58452;59.418;17.962;2022-07-06T11:16:22;100803.00;;;20.12;48.71
70833;BME280;58452;59.418;17.962;2022-07-06T11:18:58;100811.31;;;20.28;46.80
70833;BME280;58452;59.418;17.962;2022-07-06T11:23:58;100802.41;;;20.16;48.60
70833;BME280;58452;59.418;17.962;2022-07-06T11:26:24;100797.16;;;20.42;49.06
70833;BME280;58452;59.418;17.962;2022-07-06T11:28:51;100796.34;;;20.62;48.89
70833;BME280;58452;59.418;17.962;2022-07-06T11:31:17;100791.00;;;20.88;49.58
70833;BME280;58452;59.418;17.962;2022-07-06T11:33:45;100780.72;;;20.86;49.38
70833;BME280;58452;59.418;17.962;2022-07-06T11:36:21;100787.00;;;20.66;47.79
70833;BME280;58452;59.418;17.962;2022-07-06T11:38:48;100779.53;;;20.76;47.96
70833;BME280;58452;59.418;17.962;2022-07-06T11:41:15;100787.97;;;20.91;47.91
70833;BME280;58452;59.418;17.962;2022-07-06T11:43:44;100800.75;;;20.68;44.15
70833;BME280;58452;59.418;17.962;2022-07-06T11:51:22;100797.47;;;20.85;45.35
70833;BME280;58452;59.418;17.962;2022-07-06T11:53:52;100784.84;;;21.07;47.26
70833;BME280;58452;59.418;17.962;2022-07-06T11:56:18;100776.63;;;20.97;46.28
70833;BME280;58452;59.418;17.962;2022-07-06T11:58:49;100767.25;;;21.27;45.16
70833;BME280;58452;59.418;17.962;2022-07-06T12:01:15;100773.34;;;21.53;43.73
70833;BME280;58452;59.418;17.962;2022-07-06T12:03:42;100770.25;;;21.87;43.14
70833;BME280;58452;59.418;17.962;2022-07-06T12:06:34;100779.59;;;21.83;43.98
70833;BME280;58452;59.418;17.962;2022-07-06T12:09:00;100772.75;;;22.07;43.61
70833;BME280;58452;59.418;17.962;2022-07-06T12:11:31;100768.63;;;22.35;44.38
70833;BME280;58452;59.418;17.962;2022-07-06T12:14:02;100764.72;;;22.63;41.65
70833;BME280;58452;59.418;17.962;2022-07-06T12:16:34;100774.03;;;22.22;42.43
70833;BME280;58452;59.418;17.962;2022-07-06T12:19:00;100769.38;;;22.00;42.62
70833;BME280;58452;59.418;17.962;2022-07-06T12:21:26;100770.41;;;22.23;44.08
70833;BME280;58452;59.418;17.962;2022-07-06T12:23:53;100778.28;;;21.99;44.56
70833;BME280;58452;59.418;17.962;2022-07-06T12:26:20;100775.00;;;22.03;45.01
70833;BME280;58452;59.418;17.962;2022-07-06T12:29:04;100773.72;;;22.12;46.21
70833;BME280;58452;59.418;17.962;2022-07-06T12:31:47;100782.31;;;22.44;45.69
70833;BME280;58452;59.418;17.962;2022-07-06T12:34:18;100783.84;;;22.33;42.51
70833;BME280;58452;59.418;17.962;2022-07-06T12:36:45;100765.56;;;22.57;40.16
70833;BME280;58452;59.418;17.962;2022-07-06T12:39:12;100772.44;;;22.58;41.37
70833;BME280;58452;59.418;17.962;2022-07-06T12:41:45;100772.09;;;22.91;41.64
70833;BME280;58452;59.418;17.962;2022-07-06T12:44:12;100763.09;;;22.62;41.03
70833;BME280;58452;59.418;17.962;2022-07-06T12:46:40;100765.09;;;22.84;43.30
70833;BME280;58452;59.418;17.962;2022-07-06T12:49:19;100768.41;;;21.94;39.98
70833;BME280;58452;59.418;17.962;2022-07-06T12:54:21;100767.91;;;22.47;42.48
70833;BME280;58452;59.418;17.962;2022-07-06T12:57:04;100760.31;;;22.38;39.52
70833;BME280;58452;59.418;17.962;2022-07-06T12:59:32;100760.50;;;22.80;42.89